Aérodrome :
LOGIN :

S'inscrire | Disclaimer

   EN    FR    IT 

 










Légende :    VFR   VFR Marginal   IFR   IFR Intensif   IFR Très Intensif
Visi : 
Plafond : 
>= 8 km
>= 3000ft
5 à 8 km
1000 à 3000 ft
1500m à 5 km
500 à 1000 ft
800 à 1500m
200 à 500 ft
< 800m
< 200 ft
Symboles :   Orages  Brouillard  Fortes neiges  Fortes précipitations  Vent > 20 kt
SIGMETs :   Divers  Orages  Givrage  Turbulence  Onde Orograph.  Cendres Volcan.







- Altitude de l'aérodrome : 52 ft
- Code IATA : IOM
- Voir les cartes d'approche


EGNS - Isle of Man

DERNIER METAR :
  • 261220Z 26018KT 9999 FEW015 SCT035 19/14 Q0999 NOSIG

METARs EXPIRÉS :
  • 261150Z 26023KT 9999 FEW015 BKN030 18/13 Q0999 NOSIG
  • 261120Z 26020KT 9999 FEW013 BKN028 18/14 Q0999 NOSIG
  • 261050Z 22018KT 9999 FEW006 BKN010 BKN018 17/15 Q0998 BECMG SCT010
  • 261020Z 22017KT 7000 SCT003 BKN004 BKN032 16/15 Q0998 BECMG 9999 SCT007 BKN018
  • 260950Z 21017KT 6000 FEW002 OVC003 16/15 Q0998 BECMG 9999 SCT007 BKN018

TAF TAF EGNS
Valide du 26 à 12h jusqu'au 26 à 21h UTC


261100Z 2612/2621 25014KT 9999 FEW015 SCT040
PROB30
TEMPO 2617/2621 7000 SHRA
Pas de NOTAMs connus pour ce terrain.



MET'MAP, la Météo Aéronautique d'un coup d'oeil ! - Copyright ORBIFLY Décembre 2007 - Disclaimer

ORBIFLY MET'MAP TEAM :

Programmation & Développement : Alexandra Zaïnal
Conception & Développement : Baudouin d'Aumeries
Co-Programmation & Développement : Marc-Olivier Méhu
Soutien technique & logistique : Manuel Goepfert

Contact : metmap@orbifly.com




SOURCES & CREDITS :

   NOAA